createdAt,value
2018-10-05T00:00:34.508Z,94.51
2018-10-05T00:01:14.688Z,94.32
2018-10-05T00:01:55.515Z,94.6
2018-10-05T00:02:36.265Z,94.41
2018-10-05T00:03:16.617Z,94.51
2018-10-05T00:03:57.477Z,94.51
2018-10-05T00:04:40.201Z,94.32
2018-10-05T00:05:22.955Z,94.41
2018-10-05T00:06:03.039Z,94.17
2018-10-05T00:06:43.672Z,93.6
2018-10-05T00:07:24.013Z,94.27
2018-10-05T00:08:04.449Z,93.88
2018-10-05T00:08:45.024Z,93.22
2018-10-05T00:09:25.412Z,92.88
2018-10-05T00:10:07.724Z,93.88
2018-10-05T00:10:48.700Z,92.88
2018-10-05T00:11:29.520Z,93.17
2018-10-05T00:12:09.799Z,93.88
2018-10-05T00:12:50.439Z,93.46
2018-10-05T00:13:30.743Z,93.22
2018-10-05T00:14:11.346Z,92.83
2018-10-05T00:14:52.787Z,92.98
2018-10-05T00:15:33.264Z,93.6
2018-10-05T00:16:13.662Z,93.74
2018-10-05T00:16:54.146Z,93.36
2018-10-05T00:17:34.502Z,92.93
2018-10-05T00:18:15.133Z,92.98
2018-10-05T00:18:55.503Z,93.12
2018-10-05T00:19:36.213Z,92.88
2018-10-05T00:20:16.584Z,92.88
2018-10-05T00:20:57.110Z,93.08
2018-10-05T00:21:37.562Z,92.98
2018-10-05T00:22:17.876Z,93.46
2018-10-05T00:22:58.827Z,94.51
2018-10-05T00:23:39.353Z,94.32
2018-10-05T00:24:19.729Z,94.12
2018-10-05T00:25:00.122Z,94.41
2018-10-05T00:25:40.514Z,93.55
2018-10-05T00:26:21.008Z,94.12
2018-10-05T00:27:01.469Z,93.74
2018-10-05T00:27:41.896Z,94.22
2018-10-05T00:28:22.445Z,94.22
2018-10-05T00:29:02.846Z,94.22
2018-10-05T00:29:43.496Z,94.6
2018-10-05T00:30:24.044Z,94.6
2018-10-05T00:31:04.486Z,94.6
2018-10-05T00:31:44.837Z,94.41
2018-10-05T00:32:25.986Z,94.32
2018-10-05T00:33:06.415Z,95.08
2018-10-05T00:33:47.247Z,94.03
2018-10-05T00:34:27.459Z,95.08
2018-10-05T00:35:07.898Z,94.41
2018-10-05T00:35:48.324Z,94.41
2018-10-05T00:36:28.715Z,95.75
2018-10-05T00:37:09.274Z,96.13
2018-10-05T00:37:49.826Z,94.79
2018-10-05T00:38:30.102Z,95.17
2018-10-05T00:39:10.493Z,95.65
2018-10-05T00:39:50.890Z,95.46
2018-10-05T00:40:31.913Z,96.22
2018-10-05T00:41:12.345Z,96.13
2018-10-05T00:41:53.060Z,95.84
2018-10-05T00:42:33.930Z,96.13
2018-10-05T00:43:14.040Z,95.08
2018-10-05T00:43:54.401Z,96.32
2018-10-05T00:44:35.558Z,96.41
2018-10-05T00:45:15.940Z,95.65
2018-10-05T00:45:56.419Z,94.79
2018-10-05T00:46:36.845Z,94.98
2018-10-05T00:47:17.166Z,95.27
2018-10-05T00:47:57.830Z,95.08
2018-10-05T00:48:38.621Z,95.08
2018-10-05T00:49:19.118Z,94.79
2018-10-05T00:49:59.342Z,95.08
2018-10-05T00:50:39.806Z,94.32
2018-10-05T00:51:20.355Z,95.08
2018-10-05T00:52:00.631Z,94.32
2018-10-05T00:52:41.208Z,94.98
2018-10-05T00:53:21.944Z,94.89
2018-10-05T00:54:02.360Z,95.17
2018-10-05T00:54:42.758Z,94.98
2018-10-05T00:55:23.168Z,96.13
2018-10-05T00:56:03.601Z,94.98
2018-10-05T00:56:44.053Z,94.89
2018-10-05T00:57:24.434Z,94.89
2018-10-05T00:58:04.868Z,95.56
2018-10-05T00:58:45.318Z,96.51
2018-10-05T00:59:25.811Z,95.65
2018-10-05T01:00:06.609Z,96.22
2018-10-05T01:00:47.187Z,97.17
2018-10-05T01:01:28.099Z,97.08
2018-10-05T01:02:08.375Z,96.51
2018-10-05T01:02:48.874Z,96.51
2018-10-05T01:03:29.306Z,96.7
2018-10-05T01:04:10.069Z,96.32
2018-10-05T01:04:50.369Z,96.65
2018-10-05T01:05:30.708Z,97.03
2018-10-05T01:06:11.226Z,97.8
2018-10-05T01:06:51.929Z,97.08
2018-10-05T01:07:32.977Z,97.66
2018-10-05T01:08:12.943Z,96.65
2018-10-05T01:08:53.297Z,96.17
2018-10-05T01:09:35.173Z,96.89
2018-10-05T01:10:18.488Z,97.08
2018-10-05T01:10:59.076Z,96.75
2018-10-05T01:11:39.666Z,97.32
2018-10-05T01:12:20.250Z,97.37
2018-10-05T01:13:00.991Z,97.75
2018-10-05T01:13:41.431Z,96.8
2018-10-05T01:14:21.811Z,96.89
2018-10-05T01:15:02.434Z,96.8
2018-10-05T01:15:42.759Z,97.61
2018-10-05T01:16:23.520Z,97.8
2018-10-05T01:17:03.874Z,98.46
2018-10-05T01:17:44.317Z,98.18
2018-10-05T01:18:24.921Z,98.65
2018-10-05T01:19:05.089Z,97.99
2018-10-05T01:19:45.932Z,99.13
2018-10-05T01:20:26.335Z,97.89
2018-10-05T01:21:07.699Z,98.27
2018-10-05T01:21:48.255Z,99.04
2018-10-05T01:22:29.089Z,98.18
2018-10-05T01:23:09.420Z,98.08
2018-10-05T01:23:50.131Z,98.36
2018-10-05T01:24:31.094Z,98.27
2018-10-05T01:25:11.896Z,98.36
2018-10-05T01:25:52.576Z,99.13
2018-10-05T01:26:33.130Z,98.75
2018-10-05T01:27:13.489Z,98.18
2018-10-05T01:27:55.066Z,97.99
2018-10-05T01:28:34.652Z,98.08
2018-10-05T01:29:15.011Z,97.7
2018-10-05T01:29:56.105Z,97.99
2018-10-05T01:30:36.575Z,97.03
2018-10-05T01:31:17.421Z,96.65
2018-10-05T01:31:58.733Z,97.13
2018-10-05T01:32:38.453Z,96.84
2018-10-05T01:33:24.923Z,97.61
2018-10-05T01:34:07.685Z,97.22
2018-10-05T01:34:46.214Z,97.7
2018-10-05T01:35:26.644Z,97.08
2018-10-05T01:36:07.687Z,97.13
2018-10-05T01:36:47.958Z,98.03
2018-10-05T01:37:32.044Z,97.08
2018-10-05T01:38:10.661Z,97.13
2018-10-05T01:38:51.371Z,97.17
2018-10-05T01:39:32.118Z,96.51
2018-10-05T01:40:12.385Z,96.61
2018-10-05T01:40:52.760Z,96.32
2018-10-05T01:41:33.200Z,96.7
2018-10-05T01:42:13.759Z,96.22
2018-10-05T01:42:54.423Z,96.41
2018-10-05T01:43:35.191Z,95.94
2018-10-05T01:44:16.145Z,95.84
2018-10-05T01:44:56.775Z,96.41
2018-10-05T01:45:37.339Z,96.61
2018-10-05T01:46:18.135Z,95.94
2018-10-05T01:46:58.401Z,95.7
2018-10-05T01:47:38.973Z,95.79
2018-10-05T01:48:19.682Z,95.79
2018-10-05T01:49:02.638Z,95.98
2018-10-05T01:49:42.355Z,96.17
2018-10-05T01:50:22.651Z,96.75
2018-10-05T01:51:03.935Z,97.17
2018-10-05T01:51:44.964Z,97.03
2018-10-05T01:52:25.351Z,96.61
2018-10-05T01:53:05.792Z,96.32
2018-10-05T01:53:49.200Z,96.32
2018-10-05T01:54:30.053Z,96.32
2018-10-05T01:55:11.905Z,96.32
2018-10-05T01:55:52.066Z,96.32
2018-10-05T01:56:32.672Z,95.65
2018-10-05T01:57:13.263Z,95.65
2018-10-05T01:57:53.963Z,94.7
2018-10-05T01:58:35.496Z,95.27
2018-10-05T01:59:15.829Z,95.27
2018-10-05T01:59:57.009Z,94.98
2018-10-05T02:00:37.832Z,94.79
2018-10-05T02:01:21.008Z,94.32
2018-10-05T02:02:00.123Z,94.22
2018-10-05T02:02:40.595Z,94.22
2018-10-05T02:03:21.054Z,94.6
2018-10-05T02:04:01.475Z,94.22
2018-10-05T02:04:42.747Z,93.74
2018-10-05T02:05:23.840Z,93.74
2018-10-05T02:06:03.581Z,94.22
2018-10-05T02:06:43.963Z,94.51
2018-10-05T02:07:25.630Z,94.98
2018-10-05T02:08:04.920Z,94.7
2018-10-05T02:08:45.500Z,94.03
2018-10-05T02:09:26.304Z,94.51
2018-10-05T02:10:06.542Z,94.32
2018-10-05T02:10:47.001Z,94.12
2018-10-05T02:11:27.404Z,94.98
2018-10-05T02:12:07.835Z,94.98
2018-10-05T02:12:48.158Z,94.03
2018-10-05T02:13:28.663Z,93.93
2018-10-05T02:14:09.161Z,94.51
2018-10-05T02:14:49.536Z,93.74
2018-10-05T02:15:30.450Z,93.55
2018-10-05T02:16:10.427Z,92.5
2018-10-05T02:16:51.453Z,93.93
2018-10-05T02:17:31.807Z,93.65
2018-10-05T02:18:12.327Z,93.65
2018-10-05T02:18:52.780Z,92.88
2018-10-05T02:19:33.134Z,93.12
2018-10-05T02:20:15.690Z,93.7
2018-10-05T02:20:55.327Z,94.17
2018-10-05T02:21:38.365Z,94.17
2018-10-05T02:22:18.479Z,94.27
2018-10-05T02:22:58.936Z,94.08
2018-10-05T02:23:39.270Z,94.74
2018-10-05T02:24:19.990Z,94.65
2018-10-05T02:25:00.395Z,94.37
2018-10-05T02:25:41.007Z,95.22
2018-10-05T02:26:21.538Z,95.61
2018-10-05T02:27:02.125Z,95.61
2018-10-05T02:27:42.697Z,94.74
2018-10-05T02:28:23.778Z,94.74
2018-10-05T02:29:04.393Z,94.08
2018-10-05T02:29:44.855Z,94.56
2018-10-05T02:30:25.378Z,95.03
2018-10-05T02:31:05.695Z,94.65
2018-10-05T02:31:46.732Z,94.37
2018-10-05T02:32:27.192Z,93.98
2018-10-05T02:33:07.780Z,94.27
2018-10-05T02:33:48.539Z,94.74
2018-10-05T02:34:28.873Z,94.56
2018-10-05T02:35:10.775Z,94.27
2018-10-05T02:35:52.195Z,94.37
2018-10-05T02:36:32.670Z,95.12
2018-10-05T02:37:13.976Z,94.93
2018-10-05T02:37:54.286Z,94.56
2018-10-05T02:38:34.848Z,94.93
2018-10-05T02:39:15.233Z,95.03
2018-10-05T02:39:55.712Z,94.27
2018-10-05T02:40:36.112Z,95.51
2018-10-05T02:41:17.104Z,95.89
2018-10-05T02:41:58.051Z,95.7
2018-10-05T02:42:38.486Z,95.41
2018-10-05T02:43:19.010Z,95.03
2018-10-05T02:43:59.411Z,94.37
2018-10-05T02:44:39.850Z,94.93
2018-10-05T02:45:20.446Z,95.51
2018-10-05T02:46:00.829Z,94.65
2018-10-05T02:46:41.140Z,94.84
2018-10-05T02:47:21.649Z,94.93
2018-10-05T02:48:02.288Z,95.03
2018-10-05T02:48:42.724Z,94.74
2018-10-05T02:49:23.244Z,94.56
2018-10-05T02:50:03.753Z,94.74
2018-10-05T02:50:44.141Z,95.61
2018-10-05T02:51:24.521Z,95.61
2018-10-05T02:52:04.994Z,95.03
2018-10-05T02:52:45.399Z,94.56
2018-10-05T02:53:25.851Z,94.74
2018-10-05T02:54:06.253Z,94.37
2018-10-05T02:54:46.736Z,94.17
2018-10-05T02:55:27.415Z,94.93
2018-10-05T02:56:09.205Z,94.65
2018-10-05T02:56:49.061Z,95.89
2018-10-05T02:57:30.225Z,95.61
2018-10-05T02:58:10.451Z,96.36
2018-10-05T02:58:55.237Z,95.98
2018-10-05T02:59:35.495Z,96.08
2018-10-05T03:00:15.087Z,96.46
2018-10-05T03:00:57.839Z,94.65
2018-10-05T03:01:39.149Z,94.56
2018-10-05T03:02:21.646Z,94.56
2018-10-05T03:04:47.304Z,95.12
2018-10-05T03:05:36.149Z,95.08
2018-10-05T03:06:16.437Z,94.32
2018-10-05T03:06:56.757Z,93.55
2018-10-05T03:07:37.160Z,93.36
2018-10-05T03:08:17.608Z,92.88
2018-10-05T03:08:58.222Z,92.79
2018-10-05T03:09:38.503Z,92.98
2018-10-05T03:10:18.855Z,92.03
2018-10-05T03:10:59.316Z,91.93
2018-10-05T03:11:39.652Z,92.12
2018-10-05T03:12:20.075Z,92.03
2018-10-05T03:13:01.428Z,92.03
2018-10-05T03:13:42.732Z,92.22
2018-10-05T03:14:24.566Z,91.83
2018-10-05T03:15:05.165Z,91.74
2018-10-05T03:15:45.348Z,92.69
2018-10-05T03:16:25.827Z,92.88
2018-10-05T03:17:06.273Z,92.5
2018-10-05T03:17:47.171Z,92.12
2018-10-05T03:18:27.354Z,91.83
2018-10-05T03:19:08.593Z,92.03
2018-10-05T03:19:49.832Z,91.55
2018-10-05T03:20:31.093Z,92.22
2018-10-05T03:21:11.683Z,92.98
2018-10-05T03:21:52.084Z,92.69
2018-10-05T03:22:32.466Z,93.55
2018-10-05T03:23:13.438Z,93.74
2018-10-05T03:23:54.579Z,92.88
2018-10-05T03:24:37.640Z,93.36
2018-10-05T03:25:18.551Z,94.7
2018-10-05T03:25:58.773Z,92.69
2018-10-05T03:26:39.147Z,92.69
2018-10-05T03:27:20.366Z,92.12
2018-10-05T03:28:05.478Z,92.74
2018-10-05T03:28:45.863Z,91.22
2018-10-05T03:29:30.173Z,91.5
2018-10-05T03:31:45.402Z,92.65
2018-10-05T03:32:28.967Z,93.51
2018-10-05T03:33:09.633Z,94.37
2018-10-05T03:33:50.262Z,94.56
2018-10-05T03:34:30.602Z,94.17
2018-10-05T03:37:54.983Z,97.41
2018-10-05T03:38:34.388Z,97.7
2018-10-05T03:40:33.290Z,97.13
2018-10-05T03:41:14.572Z,96.27
2018-10-05T03:41:54.954Z,96.27
2018-10-05T03:42:35.428Z,96.08
2018-10-05T03:43:16.182Z,96.27
2018-10-05T03:43:56.409Z,95.41
2018-10-05T03:44:36.808Z,94.46
2018-10-05T03:45:17.234Z,95.79
2018-10-05T03:45:57.763Z,96.36
2018-10-05T03:46:38.040Z,96.65
2018-10-05T03:47:18.454Z,96.65
2018-10-05T03:47:58.965Z,95.98
2018-10-05T03:48:39.797Z,94.27
2018-10-05T03:49:23.194Z,94.56
2018-10-05T03:50:03.587Z,93.98
2018-10-05T03:50:44.367Z,94.65
2018-10-05T03:51:24.869Z,95.22
2018-10-05T03:52:05.395Z,96.75
2018-10-05T03:52:45.772Z,96.84
2018-10-05T03:53:30.829Z,96.75
2018-10-05T03:54:11.288Z,96.65
2018-10-05T03:54:51.744Z,96.08
2018-10-05T03:55:32.326Z,94.84
2018-10-05T03:56:12.640Z,94.74
2018-10-05T03:56:54.978Z,94.74
2018-10-05T03:57:35.190Z,95.22
2018-10-05T03:58:15.615Z,94.74
2018-10-05T03:58:56.333Z,94.37
2018-10-05T03:59:36.534Z,94.17
2018-10-05T04:00:16.941Z,94.27
2018-10-05T04:00:57.443Z,95.12
2018-10-05T04:01:39.682Z,94.74
2018-10-05T04:02:22.004Z,94.27
2018-10-05T04:03:03.058Z,94.17
2018-10-05T04:06:20.117Z,95.27
2018-10-05T04:07:00.750Z,94.89
2018-10-05T04:07:41.167Z,94.84
2018-10-05T04:08:21.602Z,94.89
2018-10-05T04:09:02.288Z,95.94
2018-10-05T04:09:43.227Z,95.56
2018-10-05T04:10:23.684Z,96.22
2018-10-05T04:11:04.113Z,95.46
2018-10-05T04:11:44.532Z,95.65
2018-10-05T04:12:25.041Z,95.56
2018-10-05T04:13:05.657Z,96.22
2018-10-05T04:13:46.265Z,96.03
2018-10-05T04:14:26.679Z,96.32
2018-10-05T04:15:07.032Z,96.41
2018-10-05T04:15:49.176Z,96.8
2018-10-05T04:16:29.870Z,97.65
2018-10-05T04:17:10.328Z,97.75
2018-10-05T04:17:50.786Z,97.27
2018-10-05T04:18:31.027Z,97.65
2018-10-05T04:19:11.606Z,97.94
2018-10-05T04:19:51.923Z,97.75
2018-10-05T04:20:32.582Z,97.84
2018-10-05T04:21:12.746Z,97.56
2018-10-05T04:21:53.200Z,96.51
2018-10-05T04:22:33.723Z,97.46
2018-10-05T04:23:14.300Z,98.13
2018-10-05T04:23:54.754Z,98.41
2018-10-05T04:24:35.193Z,97.46
2018-10-05T04:25:16.056Z,96.7
2018-10-05T04:25:57.181Z,97.36
2018-10-05T04:26:38.734Z,97.46
2018-10-05T04:27:19.362Z,96.89
2018-10-05T05:07:31.616Z,99.99
2018-10-05T05:08:15.129Z,99.99
2018-10-05T05:08:56.457Z,99.99
2018-10-05T05:09:36.962Z,99.99
2018-10-05T05:10:17.509Z,99.99
2018-10-05T05:10:57.945Z,99.99
2018-10-05T05:11:38.324Z,99.99
2018-10-05T05:12:18.994Z,99.99
2018-10-05T05:12:59.272Z,99.99
2018-10-05T05:13:39.836Z,99.99
2018-10-05T05:14:20.404Z,99.99
2018-10-05T05:15:00.869Z,99.99
2018-10-05T05:15:41.285Z,99.99
2018-10-05T05:16:21.637Z,99.99
2018-10-05T05:17:02.088Z,99.99
2018-10-05T05:17:42.534Z,99.99
2018-10-05T05:18:22.990Z,99.99
2018-10-05T05:19:03.376Z,99.99
2018-10-05T05:19:43.958Z,99.99
2018-10-05T05:20:24.293Z,99.99
2018-10-05T05:21:04.677Z,99.99
2018-10-05T05:21:45.098Z,99.99
2018-10-05T05:22:25.529Z,99.99
2018-10-05T05:23:06.048Z,99.99
2018-10-05T05:23:46.638Z,99.99
2018-10-05T05:24:26.913Z,99.99
2018-10-05T05:25:07.342Z,99.99
2018-10-05T05:25:47.718Z,99.99
2018-10-05T05:26:28.158Z,99.99
2018-10-05T05:27:08.544Z,99.99
2018-10-05T05:27:49.093Z,99.99
2018-10-05T05:28:29.680Z,99.99
2018-10-05T05:29:10.039Z,99.99
2018-10-05T05:29:50.497Z,99.99
2018-10-05T05:30:30.914Z,99.99
2018-10-05T05:31:11.273Z,99.99
2018-10-05T05:31:51.722Z,99.99
2018-10-05T05:32:32.113Z,99.41
2018-10-05T05:33:12.746Z,99.98
2018-10-05T05:33:52.967Z,99.6
2018-10-05T05:34:33.543Z,99.99
2018-10-05T05:35:13.920Z,99.65
2018-10-05T05:35:54.395Z,99.27
2018-10-05T05:36:34.817Z,98.32
2018-10-05T05:37:15.949Z,98.03
2018-10-05T05:37:56.060Z,98.22
2018-10-05T05:38:36.582Z,97.6
2018-10-05T05:39:16.931Z,97.65
2018-10-05T05:39:57.511Z,98.32
2018-10-05T05:40:47.340Z,98.32
2018-10-05T05:42:40.040Z,98.22
2018-10-05T05:43:21.317Z,97.17
2018-10-05T05:44:01.711Z,97.17
2018-10-05T05:44:42.118Z,97.84
2018-10-05T05:45:22.802Z,98.55
2018-10-05T05:46:03.170Z,98.89
2018-10-05T05:46:43.704Z,97.94
2018-10-05T05:47:24.368Z,98.51
2018-10-05T05:48:04.429Z,97.75
2018-10-05T05:48:44.894Z,97.94
2018-10-05T05:49:25.435Z,97.75
2018-10-05T05:50:05.931Z,98.13
2018-10-05T05:50:46.334Z,97.27
2018-10-05T05:51:26.908Z,96.7
2018-10-05T05:52:07.331Z,96.22
2018-10-05T05:52:47.644Z,96.51
2018-10-05T05:53:28.205Z,96.41
2018-10-05T05:54:08.699Z,95.65
2018-10-05T05:54:49.026Z,95.46
2018-10-05T05:55:29.634Z,94.7
2018-10-05T05:56:09.982Z,94.65
2018-10-05T05:56:50.571Z,93.6
2018-10-05T05:57:30.953Z,93.7
2018-10-05T05:58:11.541Z,93.03
2018-10-05T05:58:51.854Z,91.98
2018-10-05T05:59:32.468Z,91.98
2018-10-05T06:00:13.149Z,91.79
2018-10-05T06:00:53.264Z,91.13
2018-10-05T06:01:34.455Z,90.64
2018-10-05T06:02:15.563Z,90.69
2018-10-05T06:02:55.338Z,90.31
2018-10-05T06:03:36.871Z,90.59
2018-10-05T06:04:17.790Z,88.88
2018-10-05T06:04:58.067Z,88.31
2018-10-05T06:05:39.386Z,88.5
2018-10-05T06:06:19.203Z,87.78
2018-10-05T06:08:38.484Z,85.77
2018-10-05T06:09:34.505Z,86.01
2018-10-05T06:10:26.500Z,85.15
2018-10-05T06:11:18.120Z,84.1
2018-10-05T06:13:13.227Z,83.34
2018-10-05T06:14:07.295Z,82.48
2018-10-05T06:14:57.833Z,81.66
2018-10-05T06:15:37.865Z,81.18
2018-10-05T06:16:18.241Z,80.8
2018-10-05T06:16:58.808Z,79.56
2018-10-05T06:17:39.239Z,79.27
2018-10-05T06:18:19.723Z,79.46
2018-10-05T06:19:00.144Z,79.27
2018-10-05T06:19:40.506Z,78.99
2018-10-05T06:20:20.947Z,79.02
2018-10-05T06:21:01.415Z,78.79
2018-10-05T06:21:41.927Z,77.97
2018-10-05T06:22:22.568Z,77.5
2018-10-05T06:23:04.786Z,77.97
2018-10-05T06:23:45.146Z,78.16
2018-10-05T06:24:25.642Z,76.73
2018-10-05T06:25:05.956Z,76.1
2018-10-05T06:25:50.634Z,75.81
2018-10-05T06:26:34.049Z,75.91
2018-10-05T06:27:18.635Z,75.52
2018-10-05T06:27:58.389Z,75.52
2018-10-05T06:28:38.840Z,75.14
2018-10-05T06:29:19.456Z,73.9
2018-10-05T06:30:00.588Z,74.51
2018-10-05T06:30:40.905Z,74.32
2018-10-05T06:31:21.337Z,73.94
2018-10-05T06:32:01.735Z,73.94
2018-10-05T06:32:42.193Z,73.27
2018-10-05T06:33:22.650Z,73.27
2018-10-05T06:34:03.010Z,73.65
2018-10-05T06:34:43.420Z,73.65
2018-10-05T06:35:24.619Z,72.98
2018-10-05T06:36:04.517Z,73.27
2018-10-05T06:36:44.900Z,73.11
2018-10-05T06:37:25.351Z,72.54
2018-10-05T06:38:05.863Z,71.87
2018-10-05T06:38:46.351Z,71.39
2018-10-05T06:39:26.937Z,72.16
2018-10-05T06:40:07.330Z,71.2
2018-10-05T06:40:48.185Z,71.87
2018-10-05T06:41:29.563Z,71.87
2018-10-05T06:42:09.467Z,71.3
2018-10-05T06:42:49.885Z,71.11
2018-10-05T06:43:30.439Z,70.91
2018-10-05T06:44:11.042Z,70.24
2018-10-05T06:44:51.227Z,70.15
2018-10-05T06:45:31.715Z,70.37
2018-10-05T06:46:12.131Z,70.37
2018-10-05T06:46:52.516Z,69.7
2018-10-05T06:47:33.099Z,69.7
2018-10-05T06:48:13.503Z,69.99
2018-10-05T06:48:53.875Z,69.7
2018-10-05T06:49:34.353Z,68.65
2018-10-05T06:50:14.901Z,69.54
2018-10-05T06:50:55.598Z,69.07
2018-10-05T06:51:36.618Z,68.78
2018-10-05T06:52:18.083Z,68.11
2018-10-05T06:52:58.488Z,68.4
2018-10-05T06:53:39.771Z,67.25
2018-10-05T06:54:21.106Z,66.96
2018-10-05T06:55:01.076Z,67.18
2018-10-05T06:55:41.977Z,66.03
2018-10-05T06:56:22.628Z,66.42
2018-10-05T06:57:04.108Z,66.42
2018-10-05T06:57:45.273Z,67.25
2018-10-05T06:58:26.196Z,66.99
2018-10-05T06:59:06.970Z,67.05
2018-10-05T06:59:47.508Z,67.63
2018-10-05T07:00:29.610Z,67.82
2018-10-05T07:01:11.132Z,67.91
2018-10-05T07:01:51.774Z,67.82
2018-10-05T07:02:32.825Z,68.3
2018-10-05T07:03:13.165Z,67.82
2018-10-05T07:03:54.101Z,68.01
2018-10-05T07:04:34.331Z,67.54
2018-10-05T07:05:18.122Z,67.34
2018-10-05T07:05:58.032Z,67.47
2018-10-05T07:06:38.793Z,67.05
2018-10-05T07:07:19.558Z,67.18
2018-10-05T07:08:00.511Z,67.34
2018-10-05T07:08:42.743Z,66.51
2018-10-05T07:09:23.765Z,66.22
2018-10-05T07:10:04.602Z,66.32
2018-10-05T07:10:46.127Z,66.42
2018-10-05T07:11:26.845Z,66.42
2018-10-05T07:12:06.998Z,66.22
2018-10-05T07:12:48.785Z,66.13
2018-10-05T07:13:40.618Z,66.99
2018-10-05T07:14:29.940Z,66.8
2018-10-05T07:15:11.147Z,66.86
2018-10-05T07:15:51.653Z,67.76
2018-10-05T07:16:33.078Z,67.18
2018-10-05T07:18:53.849Z,66.22
2018-10-05T07:19:51.415Z,66.13
2018-10-05T07:20:37.134Z,66.22
2018-10-05T07:21:17.887Z,65.84
2018-10-05T07:21:58.770Z,66.32
2018-10-05T07:22:40.574Z,66.71
2018-10-05T07:23:20.707Z,67.09
2018-10-05T07:24:02.542Z,67.09
2018-10-05T07:24:42.211Z,67.18
2018-10-05T07:25:23.280Z,66.71
2018-10-05T07:26:04.800Z,66.22
2018-10-05T07:26:45.340Z,66.32
2018-10-05T07:27:25.993Z,66.71
2018-10-05T07:28:08.342Z,66.13
2018-10-05T07:28:48.501Z,66.03
2018-10-05T07:29:29.210Z,66.16
2018-10-05T07:30:09.877Z,65.59
2018-10-05T07:30:50.648Z,65.39
2018-10-05T07:31:31.360Z,65.01
2018-10-05T07:33:42.383Z,64.95
2018-10-05T07:34:44.720Z,64.05
2018-10-05T07:35:37.118Z,64.15
2018-10-05T07:36:33.111Z,65.2
2018-10-05T07:37:13.933Z,65.11
2018-10-05T07:37:54.390Z,65.59
2018-10-05T07:38:35.867Z,65.49
2018-10-05T07:39:16.526Z,66.22
2018-10-05T07:39:56.951Z,67.18
2018-10-05T07:40:38.088Z,67.66
2018-10-05T07:41:18.297Z,67.95
2018-10-05T07:41:58.784Z,67.76
2018-10-05T07:42:39.482Z,67.5
2018-10-05T07:43:20.018Z,66.55
2018-10-05T07:44:00.807Z,66.16
2018-10-05T07:44:41.153Z,66.45
2018-10-05T07:45:21.747Z,65.33
2018-10-05T07:46:02.280Z,65.05
2018-10-05T07:46:42.883Z,64.76
2018-10-05T07:47:23.356Z,64.12
2018-10-05T07:48:04.228Z,62.68
2018-10-05T07:48:44.790Z,62.68
2018-10-05T07:49:25.258Z,62.96
2018-10-05T07:50:05.727Z,63.16
2018-10-05T07:50:47.361Z,63.54
2018-10-05T07:51:27.154Z,63.51
2018-10-05T07:52:07.652Z,64.47
2018-10-05T07:52:48.197Z,64.12
2018-10-05T07:53:28.716Z,63.45
2018-10-05T07:54:09.566Z,63.25
2018-10-05T07:56:19.314Z,62.61
2018-10-05T07:56:59.670Z,61.55
2018-10-05T07:57:40.260Z,61.3
2018-10-05T07:58:20.570Z,60.91
2018-10-05T07:59:01.123Z,60.24
2018-10-05T07:59:41.926Z,59.99
2018-10-05T08:00:22.375Z,59.6
2018-10-05T08:01:03.744Z,57.8
2018-10-05T08:01:44.807Z,57.58
2018-10-05T08:02:24.872Z,57.68
2018-10-05T08:03:06.299Z,58.35
2018-10-05T08:03:46.512Z,58.83
2018-10-05T08:04:27.051Z,58.99
2018-10-05T08:05:08.311Z,59.66
2018-10-05T08:05:48.469Z,60.21
2018-10-05T08:06:28.878Z,61.08
2018-10-05T08:07:09.753Z,61.55
2018-10-05T08:07:50.987Z,61.55
2018-10-05T08:08:31.891Z,61.65
2018-10-05T08:09:12.532Z,60.82
2018-10-05T08:09:55.052Z,59.86
2018-10-05T08:10:36.363Z,59.6
2018-10-05T08:11:17.158Z,59.22
2018-10-05T08:11:57.641Z,58.57
2018-10-05T08:12:38.166Z,57.6
2018-10-05T08:13:18.702Z,57.8
2018-10-05T08:14:01.263Z,57.22
2018-10-05T08:14:43.039Z,56.91
2018-10-05T08:15:22.697Z,57.68
2018-10-05T08:16:03.728Z,57.97
2018-10-05T08:16:44.327Z,58.83
2018-10-05T08:17:25.350Z,59.19
2018-10-05T08:18:06.326Z,60.11
2018-10-05T08:18:46.229Z,60.78
2018-10-05T08:19:26.813Z,60.34
2018-10-05T08:20:07.260Z,60.43
2018-10-05T08:20:47.829Z,59.69
2018-10-05T08:21:28.385Z,59.6
2018-10-05T08:22:08.740Z,58.83
2018-10-05T08:22:50.065Z,58.67
2018-10-05T08:23:30.577Z,58.09
2018-10-05T08:24:11.012Z,58.09
2018-10-05T08:24:51.431Z,57.8
2018-10-05T08:25:31.868Z,57.99
2018-10-05T08:26:12.364Z,57.8
2018-10-05T08:26:52.794Z,57.45
2018-10-05T08:27:33.242Z,57.15
2018-10-05T08:28:13.673Z,56.96
2018-10-05T08:28:54.110Z,56.1
2018-10-05T08:29:34.557Z,55.93
2018-10-05T08:30:14.926Z,55.45
2018-10-05T08:30:55.495Z,55.07
2018-10-05T08:31:36.012Z,55
2018-10-05T08:32:16.503Z,54.42
2018-10-05T08:32:56.907Z,54.97
2018-10-05T08:33:37.306Z,54.32
2018-10-05T08:34:19.547Z,54.32
2018-10-05T08:34:59.942Z,54.03
2018-10-05T08:35:41.844Z,54.32
2018-10-05T08:36:22.245Z,53.84
2018-10-05T08:37:02.678Z,53.55
2018-10-05T08:37:43.169Z,53.74
2018-10-05T08:38:23.604Z,54.32
2018-10-05T08:39:04.250Z,54.03
2018-10-05T08:39:44.747Z,53.81
2018-10-05T08:40:26.671Z,54.61
2018-10-05T08:41:07.979Z,53.94
2018-10-05T08:41:50.259Z,53.58
2018-10-05T08:42:30.797Z,52.71
2018-10-05T08:43:11.881Z,51.97
2018-10-05T08:43:52.303Z,51.94
2018-10-05T08:44:32.771Z,52.42
2018-10-05T08:45:13.282Z,52.52
2018-10-05T08:45:54.258Z,52.71
2018-10-05T08:46:36.237Z,53.67
2018-10-05T08:47:16.779Z,53.39
2018-10-05T08:47:57.082Z,53.74
2018-10-05T08:48:37.700Z,54.52
2018-10-05T08:49:18.109Z,53.94
2018-10-05T08:49:58.660Z,53.94
2018-10-05T08:50:39.092Z,53.65
2018-10-05T08:51:19.530Z,53.45
2018-10-05T08:52:00.025Z,53.27
2018-10-05T08:52:40.440Z,53.17
2018-10-05T08:53:21.071Z,53.27
2018-10-05T08:54:02.584Z,53.07
2018-10-05T08:54:42.533Z,53.39
2018-10-05T08:55:23.836Z,53.19
2018-10-05T08:56:05.285Z,53
2018-10-05T08:56:46.515Z,53.29
2018-10-05T08:57:27.174Z,53.48
2018-10-05T08:58:07.612Z,53.09
2018-10-05T08:58:48.132Z,52.04
2018-10-05T08:59:28.651Z,51.94
2018-10-05T09:00:09.147Z,52.61
2018-10-05T09:00:49.409Z,53.27
2018-10-05T09:03:09.619Z,53.65
2018-10-05T09:04:01.777Z,53.65
2018-10-05T09:04:54.538Z,53.45
2018-10-05T09:05:49.095Z,53.55
2018-10-05T09:06:41.175Z,53.53
2018-10-05T09:07:34.112Z,54.3
2018-10-05T09:08:26.127Z,54.1
2018-10-05T09:09:22.776Z,54.1
2018-10-05T09:10:19.723Z,53.74
2018-10-05T09:11:22.878Z,52.78
2018-10-05T09:12:03.474Z,52.87
2018-10-05T09:12:44.952Z,53.07
2018-10-05T09:13:25.492Z,52.59
2018-10-05T09:14:05.892Z,52.87
2018-10-05T09:14:46.299Z,53.27
2018-10-05T09:15:26.634Z,53.17
2018-10-05T09:16:07.164Z,53.09
2018-10-05T09:16:47.698Z,51.84
2018-10-05T09:17:30.315Z,51.56
2018-10-05T09:18:10.499Z,51.65
2018-10-05T09:18:51.261Z,51.75
2018-10-05T09:19:31.658Z,52.61
2018-10-05T09:20:12.347Z,51.94
2018-10-05T09:20:52.784Z,52.04
2018-10-05T09:21:34.448Z,51.58
2018-10-05T09:22:14.285Z,51.1
2018-10-05T09:22:54.888Z,51
2018-10-05T09:23:36.083Z,50.9
2018-10-05T09:24:17.403Z,50.9
2018-10-05T09:24:57.606Z,50.9
2018-10-05T09:25:38.432Z,50.23
2018-10-05T09:26:18.568Z,50.26
2018-10-05T09:26:59.792Z,49.87
2018-10-05T09:27:40.043Z,49.48
2018-10-05T09:28:20.681Z,49.12
2018-10-05T09:29:01.288Z,48.76
2018-10-05T09:29:41.927Z,48.08
2018-10-05T09:30:22.445Z,47.14
2018-10-05T09:31:03.282Z,46.56
2018-10-05T09:31:43.864Z,46
2018-10-05T09:32:25.122Z,45.98
2018-10-05T09:33:18.640Z,46.08
2018-10-05T09:33:59.410Z,46.56
2018-10-05T09:34:39.672Z,47.12
2018-10-05T09:35:20.861Z,47.41
2018-10-05T09:36:02.285Z,47.12
2018-10-05T09:36:42.415Z,47.89
2018-10-05T09:37:22.985Z,47.99
2018-10-05T09:38:03.408Z,47.89
2018-10-05T09:38:43.973Z,47.72
2018-10-05T09:39:24.677Z,47.24
2018-10-05T09:40:05.428Z,46.47
2018-10-05T09:41:00.565Z,46.1
2018-10-05T09:41:41.020Z,45.83
2018-10-05T09:42:21.475Z,45.45
2018-10-05T09:43:01.883Z,45.45
2018-10-05T09:43:42.311Z,44.96
2018-10-05T09:44:22.740Z,44.77
2018-10-05T09:45:03.341Z,44.77
2018-10-05T09:45:43.782Z,44.75
2018-10-05T09:46:24.148Z,44.77
2018-10-05T09:47:04.604Z,45.33
2018-10-05T09:47:45.277Z,45.45
2018-10-05T09:48:25.774Z,45.64
2018-10-05T09:49:06.153Z,45.23
2018-10-05T09:49:46.564Z,45.14
2018-10-05T09:50:27.073Z,45.14
2018-10-05T09:51:07.486Z,45.62
2018-10-05T09:51:48.035Z,45.72